Time,TemperatureF,DewpointF,PressureIn,WindDirection,WindDirectionDegrees,WindSpeedMPH,WindSpeedGustMPH,Humidity,HourlyPrecipIn,Conditions,Clouds,dailyrainin,SoftwareType,DateUTC
2013-07-15 07:43:00,58.0,50.0,-100.00,WSW,251,4.0,6.0,72,0.00,,,-99.99,,2013-07-15 13:43:00,
2013-07-15 08:11:00,62.0,51.0,-100.00,NW,323,3.0,5.0,67,0.00,,,-99.99,,2013-07-15 14:11:00,
2013-07-15 08:42:00,66.0,54.0,-100.00,SE,140,9.0,16.0,67,0.00,,,-99.99,,2013-07-15 14:42:00,
2013-07-15 09:15:00,67.0,54.0,-100.00,SE,130,7.0,12.0,64,0.00,,,-99.99,,2013-07-15 15:15:00,
2013-07-15 09:45:00,69.0,53.0,-100.00,SE,138,9.0,15.0,57,0.00,,,-99.99,,2013-07-15 15:45:00,
2013-07-15 10:44:00,70.0,53.0,-100.00,SE,128,9.0,14.0,54,0.00,,,-99.99,,2013-07-15 16:44:00,
2013-07-15 11:03:00,71.0,52.0,-100.00,SE,128,5.0,12.0,50,0.00,,,-99.99,,2013-07-15 17:03:00,
2013-07-15 12:14:00,73.0,51.0,-100.00,ESE,104,7.0,14.0,47,0.00,,,-99.99,,2013-07-15 18:14:00,
2013-07-15 12:45:00,73.0,49.0,-100.00,ESE,102,7.0,12.0,42,0.00,,,-99.99,,2013-07-15 18:45:00,
2013-07-15 13:45:00,74.0,52.0,-100.00,SE,140,11.0,20.0,47,0.00,,,-99.99,,2013-07-15 19:45:00,
2013-07-15 14:43:00,75.0,49.0,-100.00,ESE,114,12.0,21.0,39,0.00,,,-99.99,,2013-07-15 20:43:00,
2013-07-15 15:46:00,73.0,49.0,-100.00,SE,140,14.0,21.0,43,0.00,,,-99.99,,2013-07-15 21:46:00,
2013-07-15 16:02:00,76.0,48.0,-100.00,SE,134,12.0,19.0,37,0.00,,,-99.99,,2013-07-15 22:02:00,
2013-07-15 16:43:00,76.0,46.0,-100.00,SE,137,12.0,19.0,34,0.00,,,-99.99,,2013-07-15 22:43:00,
2013-07-15 17:13:00,75.0,48.0,-100.00,SE,131,13.0,19.0,38,0.00,,,-99.99,,2013-07-15 23:13:00,
2013-07-15 17:25:00,76.0,49.0,-100.00,SE,126,12.0,21.0,39,0.00,,,-99.99,,2013-07-15 23:25:00,
2013-07-15 17:53:00,74.0,51.0,-100.00,SE,138,16.0,26.0,44,0.00,,,-99.99,,2013-07-15 23:53:00,
2013-07-15 18:03:00,74.0,52.0,-100.00,SE,138,16.0,24.0,47,0.00,,,-99.99,,2013-07-16 00:03:00,
2013-07-15 18:45:00,73.0,54.0,-100.00,ESE,119,14.0,21.0,52,0.00,,,-99.99,,2013-07-16 00:45:00,
2013-07-15 19:14:00,71.0,54.0,-100.00,SE,134,14.0,22.0,55,0.00,,,-99.99,,2013-07-16 01:14:00,
2013-07-15 19:46:00,69.0,55.0,-100.00,SE,124,12.0,18.0,60,0.00,,,-99.99,,2013-07-16 01:46:00,
2013-07-15 20:46:00,65.0,54.0,-100.00,SSE,148,19.0,26.0,69,0.00,,,-99.99,,2013-07-16 02:46:00,
2013-07-15 21:46:00,62.0,54.0,-100.00,SSE,150,16.0,22.0,76,0.00,,,-99.99,,2013-07-16 03:46:00,
2013-07-15 22:43:00,61.0,52.0,-100.00,SSE,155,12.0,17.0,72,0.00,,,-99.99,,2013-07-16 04:43:00,
2013-07-15 23:43:00,60.0,50.0,-100.00,SSE,154,12.0,17.0,69,0.00,,,-99.99,,2013-07-16 05:43:00,